Time;durP1;ratioP1;P1;durP2;ratioP2;P2;SDS_P1;SDS_P2;PMS_P1;PMS_P2;Temp;Humidity;BMP_temperature;BMP_pressure;BME280_temperature;BME280_humidity;BME280_pressure;Samples;Min_cycle;Max_cycle;Signal;HPM_P1;HPM_P2
2023/04/16 00:00:28;;;;;;;6.97;3.20;;;8.00;99.90;;;;;;4859546;29;20227;-67
2023/04/16 00:02:56;;;;;;;11.57;3.40;;;7.90;99.90;;;;;;4856153;29;20251;-67
2023/04/16 00:05:26;;;;;;;9.60;3.33;;;7.90;99.90;;;;;;4860617;29;20235;-66
2023/04/16 00:07:54;;;;;;;9.97;3.03;;;8.00;99.90;;;;;;4854873;29;20656;-67
2023/04/16 00:10:25;;;;;;;9.50;2.80;;;8.00;99.90;;;;;;4854118;29;20294;-68
2023/04/16 00:12:53;;;;;;;8.30;2.70;;;8.00;99.90;;;;;;4850593;29;20242;-67
2023/04/16 00:15:23;;;;;;;10.20;3.10;;;8.00;99.90;;;;;;4865289;29;20730;-67
2023/04/16 00:17:51;;;;;;;11.13;2.83;;;8.00;99.90;;;;;;4855199;29;20361;-67
2023/04/16 00:20:20;;;;;;;7.50;2.60;;;8.00;99.90;;;;;;4851666;29;20686;-66
2023/04/16 00:22:48;;;;;;;11.63;3.00;;;8.10;99.90;;;;;;4855402;29;20655;-66
2023/04/16 00:25:17;;;;;;;6.93;2.43;;;8.10;99.90;;;;;;4867049;29;20347;-67
2023/04/16 00:27:45;;;;;;;8.37;2.60;;;8.10;99.90;;;;;;4850440;29;20230;-67
2023/04/16 00:30:13;;;;;;;10.20;3.10;;;8.10;99.90;;;;;;4857306;29;20802;-67
2023/04/16 00:32:43;;;;;;;8.53;2.57;;;8.10;99.90;;;;;;4849394;29;20280;-67
2023/04/16 00:35:11;;;;;;;10.27;2.87;;;8.10;99.90;;;;;;4854495;29;20326;-67
2023/04/16 00:37:42;;;;;;;5.57;2.20;;;8.10;99.90;;;;;;4855908;29;20219;-66
2023/04/16 00:40:11;;;;;;;11.27;2.50;;;8.10;99.90;;;;;;4856094;29;20244;-67
2023/04/16 00:42:39;;;;;;;7.73;2.50;;;8.10;99.90;;;;;;4861303;29;20275;-67
2023/04/16 00:45:08;;;;;;;8.07;2.40;;;8.10;99.90;;;;;;4848868;29;20223;-66
2023/04/16 00:47:37;;;;;;;11.63;2.70;;;8.10;99.90;;;;;;4852850;29;20766;-67
2023/04/16 00:50:07;;;;;;;6.93;2.47;;;8.10;99.90;;;;;;4858134;29;20235;-66
2023/04/16 00:52:36;;;;;;;8.60;2.60;;;8.10;99.90;;;;;;4862918;29;20259;-67
2023/04/16 00:55:06;;;;;;;8.83;2.40;;;8.10;99.90;;;;;;4859227;29;20240;-67
2023/04/16 00:57:34;;;;;;;3.67;2.40;;;8.10;99.90;;;;;;4857807;29;20296;-66
2023/04/16 01:00:03;;;;;;;5.90;2.50;;;8.10;99.90;;;;;;4859498;29;20257;-67
2023/04/16 01:02:33;;;;;;;6.67;2.47;;;8.10;99.90;;;;;;4850477;29;20219;-67
2023/04/16 01:05:03;;;;;;;6.67;2.13;;;8.10;99.90;;;;;;4850939;29;20226;-67
2023/04/16 01:07:32;;;;;;;5.77;2.20;;;8.10;99.90;;;;;;4863794;29;20194;-68
2023/04/16 01:10:00;;;;;;;4.77;1.90;;;8.10;99.90;;;;;;4862108;29;20220;-66
2023/04/16 01:12:28;;;;;;;7.57;2.20;;;8.10;99.90;;;;;;4857877;29;20223;-67
2023/04/16 01:14:57;;;;;;;4.27;1.90;;;8.10;99.90;;;;;;4851519;29;20239;-67
2023/04/16 01:17:25;;;;;;;5.80;2.20;;;8.10;99.90;;;;;;4867981;29;20601;-66
2023/04/16 01:19:53;;;;;;;3.03;2.10;;;8.10;99.90;;;;;;4852992;29;20237;-67
2023/04/16 01:22:23;;;;;;;6.00;2.03;;;8.10;99.90;;;;;;4860274;29;20662;-67
2023/04/16 01:24:51;;;;;;;6.63;2.17;;;8.20;99.90;;;;;;4850118;29;20228;-67
2023/04/16 01:27:19;;;;;;;4.77;1.97;;;8.20;99.90;;;;;;4870901;29;20218;-67
2023/04/16 01:29:48;;;;;;;4.27;2.00;;;8.20;99.90;;;;;;4854466;29;20583;-67
2023/04/16 01:32:16;;;;;;;4.07;2.23;;;8.20;99.90;;;;;;4868932;29;20235;-67
2023/04/16 01:34:44;;;;;;;7.03;2.17;;;8.10;99.90;;;;;;4860733;29;20236;-65
2023/04/16 01:37:12;;;;;;;6.20;2.20;;;8.10;99.90;;;;;;4861292;29;20655;-67
2023/04/16 01:39:42;;;;;;;4.63;1.97;;;8.10;99.90;;;;;;4854539;29;20575;-67
2023/04/16 01:42:10;;;;;;;8.90;1.97;;;8.10;99.90;;;;;;4855129;29;20307;-67
2023/04/16 01:44:38;;;;;;;2.93;1.50;;;8.10;99.90;;;;;;4863632;29;20231;-67
2023/04/16 01:47:06;;;;;;;2.97;1.80;;;8.20;99.90;;;;;;4852467;29;20375;-67
2023/04/16 01:49:35;;;;;;;2.20;1.90;;;8.20;99.90;;;;;;4859634;29;20197;-67
2023/04/16 01:52:03;;;;;;;5.07;2.00;;;8.20;99.90;;;;;;4848741;29;20235;-67
2023/04/16 01:54:31;;;;;;;10.83;2.13;;;8.20;99.90;;;;;;4851666;29;20219;-66
2023/04/16 01:57:04;;;;;;;6.10;2.13;;;8.20;99.90;;;;;;4848662;29;20254;-67
2023/04/16 01:59:32;;;;;;;7.93;2.10;;;8.20;99.90;;;;;;4848454;29;20223;-67
2023/04/16 02:02:03;;;;;;;5.23;1.80;;;8.20;99.90;;;;;;4851754;29;20227;-66
2023/04/16 02:04:31;;;;;;;4.20;1.77;;;8.20;99.90;;;;;;4852621;29;20197;-67
2023/04/16 02:07:00;;;;;;;2.90;1.73;;;8.20;99.90;;;;;;4848302;29;20220;-67
2023/04/16 02:09:28;;;;;;;4.10;2.00;;;8.20;99.90;;;;;;4855255;29;20227;-67
2023/04/16 02:11:56;;;;;;;7.10;2.27;;;8.20;99.90;;;;;;4856023;29;20967;-67
2023/04/16 02:14:26;;;;;;;8.63;2.30;;;8.20;99.90;;;;;;4849814;29;20231;-66
2023/04/16 02:16:54;;;;;;;4.57;1.83;;;8.20;99.90;;;;;;4845860;29;20271;-66
2023/04/16 02:19:22;;;;;;;3.87;2.50;;;8.20;99.90;;;;;;4852316;29;20250;-67
2023/04/16 02:21:51;;;;;;;7.40;2.77;;;8.20;99.90;;;;;;4849288;29;20251;-67
2023/04/16 02:24:20;;;;;;;3.33;1.80;;;8.20;99.90;;;;;;4849322;29;20295;-67
2023/04/16 02:26:48;;;;;;;8.13;2.20;;;8.20;99.90;;;;;;4854007;29;20628;-67
2023/04/16 02:29:16;;;;;;;5.60;1.80;;;8.20;99.90;;;;;;4847235;29;20289;-67
2023/04/16 02:31:46;;;;;;;2.07;1.90;;;8.20;99.90;;;;;;4854694;29;20263;-66
2023/04/16 02:34:15;;;;;;;4.47;2.10;;;8.20;99.90;;;;;;4851693;29;20231;-67
2023/04/16 02:36:43;;;;;;;6.17;2.30;;;8.20;99.90;;;;;;4845736;29;20641;-67
2023/04/16 02:39:11;;;;;;;6.93;2.40;;;8.10;99.90;;;;;;4853249;29;20231;-67
2023/04/16 02:41:39;;;;;;;7.57;2.27;;;8.10;99.90;;;;;;4860613;29;20228;-67
2023/04/16 02:44:08;;;;;;;4.60;2.37;;;8.10;99.90;;;;;;4856589;29;20235;-66
2023/04/16 02:46:36;;;;;;;7.47;2.43;;;8.10;99.90;;;;;;4859691;29;20191;-67
2023/04/16 02:49:06;;;;;;;4.33;2.27;;;8.10;99.90;;;;;;4863561;29;20277;-67
2023/04/16 02:51:34;;;;;;;6.37;2.53;;;8.10;99.90;;;;;;4860299;29;20227;-67
2023/04/16 02:54:02;;;;;;;4.17;2.50;;;8.20;99.90;;;;;;4851357;29;20303;-67
2023/04/16 02:56:31;;;;;;;5.60;2.33;;;8.10;99.90;;;;;;4863730;29;20281;-67
2023/04/16 02:58:59;;;;;;;4.00;2.40;;;8.10;99.90;;;;;;4859403;29;20235;-67
2023/04/16 03:01:28;;;;;;;7.30;2.80;;;8.20;99.90;;;;;;4853440;29;20207;-67
2023/04/16 03:03:56;;;;;;;5.70;2.43;;;8.20;99.90;;;;;;4859204;29;20227;-67
2023/04/16 03:06:26;;;;;;;7.70;2.67;;;8.20;99.90;;;;;;4852431;29;20234;-67
2023/04/16 03:08:54;;;;;;;3.47;2.57;;;8.20;99.90;;;;;;4851927;29;20572;-67
2023/04/16 03:11:22;;;;;;;7.67;2.53;;;8.20;99.90;;;;;;4851623;29;20665;-67
2023/04/16 03:13:50;;;;;;;6.27;2.80;;;8.20;99.90;;;;;;4855059;29;20247;-66
2023/04/16 03:16:19;;;;;;;3.87;2.23;;;8.10;99.90;;;;;;4854406;29;20224;-68
2023/04/16 03:18:47;;;;;;;7.57;2.90;;;8.20;99.90;;;;;;4854940;29;20245;-67
2023/04/16 03:21:15;;;;;;;7.93;3.20;;;8.20;99.90;;;;;;4855181;29;20228;-67
2023/04/16 03:23:45;;;;;;;11.70;2.83;;;8.20;99.90;;;;;;4860548;29;20712;-67
2023/04/16 03:26:13;;;;;;;8.03;2.73;;;8.20;99.90;;;;;;4860854;29;20582;-67
2023/04/16 03:28:41;;;;;;;8.13;2.80;;;8.20;99.90;;;;;;4861003;29;20200;-66
2023/04/16 03:31:09;;;;;;;4.20;2.57;;;8.20;99.90;;;;;;4849399;29;20608;-67
2023/04/16 03:33:37;;;;;;;8.57;3.50;;;8.20;99.90;;;;;;4851281;29;20227;-67
2023/04/16 03:36:06;;;;;;;13.83;2.93;;;8.20;99.90;;;;;;4859497;29;20215;-67
2023/04/16 03:38:34;;;;;;;5.47;2.40;;;8.20;99.90;;;;;;4858126;29;20718;-67
2023/04/16 03:41:04;;;;;;;6.40;2.50;;;8.20;99.90;;;;;;4853082;29;20307;-66
2023/04/16 03:43:33;;;;;;;5.17;2.50;;;8.20;99.90;;;;;;4858701;29;20250;-66
2023/04/16 03:46:01;;;;;;;5.80;2.53;;;8.20;99.90;;;;;;4854805;29;20258;-67
2023/04/16 03:48:29;;;;;;;6.70;2.63;;;8.20;99.90;;;;;;4846652;29;20378;-67
2023/04/16 03:50:58;;;;;;;6.00;2.30;;;8.20;99.90;;;;;;4851691;29;20223;-67
2023/04/16 03:53:26;;;;;;;4.60;2.60;;;8.20;99.90;;;;;;4857655;29;20247;-67
2023/04/16 03:55:54;;;;;;;6.77;2.40;;;8.10;99.90;;;;;;4854589;29;20635;-66
2023/04/16 03:58:24;;;;;;;7.87;2.80;;;8.10;99.90;;;;;;4858515;29;20654;-66
2023/04/16 04:00:53;;;;;;;4.13;2.73;;;8.10;99.90;;;;;;4855977;29;20235;-67
2023/04/16 04:03:21;;;;;;;4.00;2.30;;;8.10;99.90;;;;;;4857983;29;20231;-67
2023/04/16 04:05:50;;;;;;;5.83;2.90;;;8.10;99.90;;;;;;4849816;29;20242;-67
2023/04/16 04:08:18;;;;;;;6.47;2.70;;;8.10;99.90;;;;;;4859428;29;20319;-66
2023/04/16 04:10:46;;;;;;;5.80;2.60;;;8.10;99.90;;;;;;4849235;29;20282;-66
2023/04/16 04:13:15;;;;;;;3.47;2.00;;;8.10;99.90;;;;;;4859787;29;20207;-67
2023/04/16 04:15:45;;;;;;;5.43;2.67;;;8.10;99.90;;;;;;4850182;29;20227;-67
2023/04/16 04:18:13;;;;;;;5.43;2.23;;;8.10;99.90;;;;;;4855773;29;20706;-67
2023/04/16 04:20:42;;;;;;;3.87;2.63;;;8.10;99.90;;;;;;4849140;29;20224;-67
2023/04/16 04:23:10;;;;;;;4.73;2.50;;;8.20;99.90;;;;;;4855983;29;20282;-66
2023/04/16 04:25:38;;;;;;;4.43;2.70;;;8.10;99.90;;;;;;4859611;29;20255;-66
2023/04/16 04:28:06;;;;;;;6.23;2.93;;;8.10;99.90;;;;;;4850268;29;20540;-66
2023/04/16 04:30:35;;;;;;;7.33;3.10;;;8.10;99.90;;;;;;4850839;29;20683;-67
2023/04/16 04:33:05;;;;;;;2.83;2.60;;;8.10;99.90;;;;;;4856957;29;20261;-66
2023/04/16 04:35:33;;;;;;;4.50;2.40;;;8.20;99.90;;;;;;4853477;29;20235;-67
2023/04/16 04:38:03;;;;;;;6.97;2.80;;;8.20;99.90;;;;;;4864015;29;20235;-66
2023/04/16 04:40:31;;;;;;;2.73;2.53;;;8.10;99.90;;;;;;4851236;29;20200;-67
2023/04/16 04:42:59;;;;;;;6.93;2.40;;;8.10;99.90;;;;;;4852347;29;20625;-67
2023/04/16 04:45:27;;;;;;;2.67;2.30;;;8.10;99.90;;;;;;4854585;29;20658;-67
2023/04/16 04:47:58;;;;;;;4.47;2.33;;;8.10;99.90;;;;;;4856460;29;20243;-66
2023/04/16 04:50:28;;;;;;;5.20;2.03;;;8.10;99.90;;;;;;4853038;29;20240;-67
2023/04/16 04:52:57;;;;;;;12.13;2.53;;;8.20;99.90;;;;;;4855668;29;20196;-66
2023/04/16 04:55:25;;;;;;;4.90;2.60;;;8.10;99.90;;;;;;4859432;29;20235;-67
2023/04/16 04:57:53;;;;;;;5.90;2.40;;;8.10;99.90;;;;;;4861887;29;20223;-67
2023/04/16 05:00:21;;;;;;;2.70;2.50;;;8.10;99.90;;;;;;4852111;29;20223;-67
2023/04/16 05:02:50;;;;;;;4.30;2.80;;;8.20;99.90;;;;;;4861598;29;20291;-67
2023/04/16 05:05:19;;;;;;;4.97;2.67;;;8.20;99.90;;;;;;4857925;29;20231;-67
2023/04/16 05:07:48;;;;;;;4.50;2.93;;;8.20;99.90;;;;;;4863148;29;20195;-66
2023/04/16 05:10:17;;;;;;;5.90;2.70;;;8.20;99.90;;;;;;4856461;29;20204;-67
2023/04/16 05:12:47;;;;;;;4.20;2.70;;;8.20;99.90;;;;;;4853115;29;20686;-67
2023/04/16 05:15:16;;;;;;;5.93;3.03;;;8.20;99.90;;;;;;4857611;29;20245;-67
2023/04/16 05:17:44;;;;;;;4.07;2.57;;;8.20;99.90;;;;;;4847904;29;20273;-66
2023/04/16 05:20:13;;;;;;;4.57;2.70;;;8.20;99.90;;;;;;4859470;29;20226;-66
2023/04/16 05:22:43;;;;;;;3.47;2.63;;;8.20;99.90;;;;;;4852424;29;20192;-66
2023/04/16 05:25:12;;;;;;;5.50;2.80;;;8.20;99.90;;;;;;4853921;29;20251;-67
2023/04/16 05:27:41;;;;;;;4.20;2.87;;;8.20;99.90;;;;;;4850435;29;20306;-67
2023/04/16 05:30:10;;;;;;;3.53;2.50;;;8.20;99.90;;;;;;4848557;29;20283;-67
2023/04/16 05:32:39;;;;;;;6.60;3.10;;;8.20;99.90;;;;;;4850956;29;20682;-67
2023/04/16 05:35:08;;;;;;;4.80;2.80;;;8.20;99.90;;;;;;4847363;29;20232;-66
2023/04/16 05:37:37;;;;;;;7.20;3.10;;;8.20;99.90;;;;;;4856012;29;20216;-67
2023/04/16 05:40:06;;;;;;;8.70;2.97;;;8.20;99.90;;;;;;4853267;29;20219;-67
2023/04/16 05:42:35;;;;;;;9.33;3.13;;;8.30;99.90;;;;;;4851997;29;20315;-67
2023/04/16 05:45:04;;;;;;;4.03;3.17;;;8.30;99.90;;;;;;4848446;29;20260;-66
2023/04/16 05:47:32;;;;;;;7.00;3.40;;;8.20;99.90;;;;;;4847897;29;20215;-67
2023/04/16 05:50:00;;;;;;;6.83;3.40;;;8.30;99.90;;;;;;4850870;29;20235;-66
2023/04/16 05:52:29;;;;;;;4.33;2.90;;;8.30;99.90;;;;;;4860846;29;20215;-67
2023/04/16 05:55:00;;;;;;;6.47;3.43;;;8.30;99.90;;;;;;4847752;29;20692;-66
2023/04/16 05:57:29;;;;;;;9.13;2.97;;;8.30;99.90;;;;;;4857147;29;20287;-67
2023/04/16 05:59:58;;;;;;;5.30;3.47;;;8.30;99.90;;;;;;4850260;29;20556;-67
2023/04/16 06:02:26;;;;;;;3.77;3.37;;;8.30;99.90;;;;;;4857080;29;20358;-67
2023/04/16 06:04:55;;;;;;;4.87;2.93;;;8.30;99.90;;;;;;4846744;29;20207;-67
2023/04/16 06:07:24;;;;;;;9.33;3.43;;;8.40;99.90;;;;;;4848792;29;20196;-67
2023/04/16 06:09:52;;;;;;;4.80;3.73;;;8.40;99.90;;;;;;4852826;29;20644;-66
2023/04/16 06:12:21;;;;;;;6.67;3.80;;;8.40;99.90;;;;;;4847916;29;20227;-67
2023/04/16 06:14:49;;;;;;;8.67;3.90;;;8.50;99.90;;;;;;4853465;29;21541;-67
2023/04/16 06:17:18;;;;;;;8.33;4.10;;;8.50;99.90;;;;;;4853215;29;20363;-67
2023/04/16 06:19:47;;;;;;;8.60;3.90;;;8.50;99.90;;;;;;4862288;29;20200;-66
2023/04/16 06:22:15;;;;;;;6.93;4.00;;;8.50;99.90;;;;;;4870399;29;20203;-67
2023/04/16 06:24:43;;;;;;;5.03;3.50;;;8.50;99.90;;;;;;4859284;29;20231;-67
2023/04/16 06:27:12;;;;;;;8.70;3.70;;;8.50;99.90;;;;;;4853942;29;20690;-67
2023/04/16 06:29:40;;;;;;;7.13;3.63;;;8.50;99.90;;;;;;4852857;29;20223;-67
2023/04/16 06:32:09;;;;;;;7.47;3.50;;;8.60;99.90;;;;;;4851959;29;20227;-67
2023/04/16 06:34:39;;;;;;;6.07;3.83;;;8.60;99.90;;;;;;4853098;29;20591;-66
2023/04/16 06:37:07;;;;;;;3.57;3.27;;;8.70;99.90;;;;;;4860152;29;20251;-66
2023/04/16 06:39:37;;;;;;;8.80;4.03;;;8.70;99.90;;;;;;4852197;29;20322;-66
2023/04/16 06:42:06;;;;;;;5.70;3.70;;;8.60;99.90;;;;;;4855474;29;20249;-66
2023/04/16 06:44:35;;;;;;;4.80;3.70;;;8.70;99.90;;;;;;4852904;29;20231;-66
2023/04/16 06:47:03;;;;;;;4.23;3.83;;;8.70;99.90;;;;;;4861606;29;20219;-66
2023/04/16 06:49:32;;;;;;;5.17;4.10;;;8.70;99.90;;;;;;4859845;29;20196;-66
2023/04/16 06:52:01;;;;;;;5.20;3.63;;;8.80;99.90;;;;;;4857194;29;20574;-66
2023/04/16 06:54:33;;;;;;;10.40;4.33;;;8.80;99.90;;;;;;4851899;29;20227;-65
2023/04/16 06:57:01;;;;;;;6.07;3.57;;;8.80;99.90;;;;;;4857335;29;20227;-66
2023/04/16 06:59:29;;;;;;;8.40;3.93;;;8.80;99.90;;;;;;4856715;29;20265;-66
2023/04/16 07:01:58;;;;;;;7.87;4.07;;;8.80;99.90;;;;;;4849801;29;20824;-66
2023/04/16 07:04:26;;;;;;;4.70;4.00;;;8.80;99.90;;;;;;4856286;29;20194;-67
2023/04/16 07:06:54;;;;;;;5.70;3.87;;;8.90;99.90;;;;;;4851894;29;20283;-67
2023/04/16 07:09:25;;;;;;;12.87;4.17;;;8.90;99.90;;;;;;4852180;29;20267;-66
2023/04/16 07:11:54;;;;;;;5.43;3.90;;;8.80;99.90;;;;;;4848355;29;20311;-67
2023/04/16 07:14:22;;;;;;;6.33;3.70;;;8.80;99.90;;;;;;4852684;29;20252;-66
2023/04/16 07:16:50;;;;;;;4.93;4.37;;;8.90;99.90;;;;;;4853516;29;20249;-66
2023/04/16 07:19:18;;;;;;;5.33;4.37;;;8.90;99.90;;;;;;4852090;29;20207;-67
2023/04/16 07:21:47;;;;;;;10.87;4.90;;;8.90;99.90;;;;;;4856596;29;20220;-66
2023/04/16 07:24:15;;;;;;;5.10;4.60;;;8.90;99.90;;;;;;4852555;29;20224;-67
2023/04/16 07:26:45;;;;;;;9.83;4.77;;;8.90;99.90;;;;;;4856394;29;20219;-66
2023/04/16 07:29:13;;;;;;;6.93;4.67;;;8.90;99.90;;;;;;4852808;29;20234;-66
2023/04/16 07:31:41;;;;;;;14.23;4.83;;;9.00;99.90;;;;;;4849559;29;20212;-66
2023/04/16 07:34:09;;;;;;;7.03;4.87;;;9.00;99.90;;;;;;4850609;29;20667;-67
2023/04/16 07:36:38;;;;;;;8.63;5.00;;;9.00;99.90;;;;;;4852779;29;20291;-67
2023/04/16 07:39:06;;;;;;;7.80;4.77;;;9.10;99.90;;;;;;4851833;29;20240;-67
2023/04/16 07:41:35;;;;;;;6.40;4.80;;;9.10;99.90;;;;;;4853579;29;20574;-67
2023/04/16 07:44:05;;;;;;;6.90;5.10;;;9.20;99.90;;;;;;4853990;29;20261;-67
2023/04/16 07:46:33;;;;;;;8.47;4.80;;;9.30;99.90;;;;;;4854259;29;20200;-67
2023/04/16 07:49:13;;;;;;;9.13;4.40;;;9.40;99.90;;;;;;4856563;29;20212;-67
2023/04/16 07:51:42;;;;;;;8.40;5.07;;;9.50;99.90;;;;;;4853550;29;20690;-67
2023/04/16 07:54:10;;;;;;;6.00;4.37;;;9.50;99.90;;;;;;4861020;29;20273;-67
2023/04/16 07:56:39;;;;;;;8.83;4.73;;;9.60;99.90;;;;;;4860649;29;20258;-67
2023/04/16 07:59:08;;;;;;;7.70;4.60;;;9.70;99.90;;;;;;4851022;29;20300;-67
2023/04/16 08:01:50;;;;;;;5.70;3.97;;;9.80;99.90;;;;;;4859034;29;20551;-67
2023/04/16 08:04:23;;;;;;;8.63;4.07;;;9.90;99.90;;;;;;4859656;29;20204;-67
2023/04/16 08:06:53;;;;;;;9.30;4.10;;;10.00;99.90;;;;;;4851276;29;20357;-67
2023/04/16 08:09:22;;;;;;;9.53;4.80;;;10.10;99.90;;;;;;4852677;29;20232;-67
2023/04/16 08:11:51;;;;;;;10.80;4.40;;;10.10;99.90;;;;;;4855086;29;20231;-67
2023/04/16 08:14:20;;;;;;;7.17;4.10;;;10.00;99.90;;;;;;4848014;29;20231;-67
2023/04/16 08:16:50;;;;;;;8.90;4.20;;;10.00;99.90;;;;;;4853754;29;20274;-66
2023/04/16 08:19:18;;;;;;;4.87;3.60;;;10.00;99.90;;;;;;4855523;29;20223;-67
2023/04/16 08:21:47;;;;;;;8.00;4.07;;;10.10;99.90;;;;;;4858595;29;20278;-67
2023/04/16 08:24:15;;;;;;;6.70;4.10;;;10.20;99.90;;;;;;4847810;29;20230;-66
2023/04/16 08:26:44;;;;;;;4.77;3.93;;;10.30;99.90;;;;;;4851420;29;20282;-67
2023/04/16 08:29:12;;;;;;;6.07;3.90;;;10.40;99.90;;;;;;4854897;29;20287;-67
2023/04/16 08:31:42;;;;;;;10.53;4.60;;;10.60;99.90;;;;;;4860493;29;20199;-67
2023/04/16 08:34:11;;;;;;;5.00;4.20;;;10.70;99.90;;;;;;4860848;29;20195;-67
2023/04/16 08:36:40;;;;;;;9.73;4.40;;;10.80;99.90;;;;;;4849742;29;20261;-67
2023/04/16 08:39:09;;;;;;;6.57;4.50;;;10.80;99.90;;;;;;4857371;29;20231;-67
2023/04/16 08:41:40;;;;;;;7.90;4.63;;;10.80;99.90;;;;;;4852122;29;20592;-67
2023/04/16 08:44:11;;;;;;;7.73;4.77;;;10.80;99.90;;;;;;4853682;29;20225;-67
2023/04/16 08:46:42;;;;;;;11.93;4.80;;;10.80;99.90;;;;;;4849324;29;20203;-66
2023/04/16 08:49:16;;;;;;;6.03;4.43;;;10.80;99.90;;;;;;4853205;29;20611;-67
2023/04/16 08:51:51;;;;;;;5.70;4.13;;;10.90;99.90;;;;;;4855584;29;20244;-67
2023/04/16 08:54:32;;;;;;;8.60;4.77;;;10.80;99.90;;;;;;4852571;29;20226;-67
2023/04/16 08:57:02;;;;;;;6.97;4.73;;;10.70;99.90;;;;;;4846418;29;20231;-67
2023/04/16 08:59:31;;;;;;;9.40;4.97;;;10.70;99.90;;;;;;4856271;29;20643;-67
2023/04/16 09:02:01;;;;;;;8.53;4.63;;;10.70;99.90;;;;;;4858181;29;20240;-67
2023/04/16 09:04:29;;;;;;;7.90;5.40;;;10.70;99.90;;;;;;4851943;29;20675;-67
2023/04/16 09:06:59;;;;;;;10.23;5.30;;;10.70;99.90;;;;;;4851076;29;20303;-67
2023/04/16 09:09:28;;;;;;;8.00;5.10;;;10.70;99.90;;;;;;4851802;29;20227;-67
2023/04/16 09:11:56;;;;;;;9.53;5.17;;;10.70;99.90;;;;;;4850868;29;20231;-67
2023/04/16 09:14:25;;;;;;;8.17;5.10;;;10.70;99.90;;;;;;4858492;29;20235;-67
2023/04/16 09:16:54;;;;;;;6.17;4.73;;;10.60;99.90;;;;;;4852944;29;20260;-67
2023/04/16 09:19:24;;;;;;;6.00;5.23;;;10.70;99.90;;;;;;4853761;29;20242;-67
2023/04/16 09:21:52;;;;;;;6.93;4.70;;;10.80;99.90;;;;;;4854343;29;20230;-67
2023/04/16 09:24:21;;;;;;;10.80;5.90;;;10.70;99.90;;;;;;4860261;29;20639;-67
2023/04/16 09:26:51;;;;;;;12.97;6.30;;;10.80;99.90;;;;;;4852432;29;20215;-68
2023/04/16 09:29:36;;;;;;;9.97;5.10;;;10.80;99.90;;;;;;4861000;29;20234;-67
2023/04/16 09:32:06;;;;;;;9.27;5.00;;;11.00;99.90;;;;;;4861554;29;20231;-67
2023/04/16 09:34:54;;;;;;;10.07;4.80;;;10.90;99.90;;;;;;4854826;29;20230;-67
2023/04/16 09:37:23;;;;;;;8.50;4.60;;;10.80;99.90;;;;;;4841354;29;20271;-68
2023/04/16 09:39:56;;;;;;;6.13;4.73;;;10.80;99.90;;;;;;4845420;29;20239;-67
2023/04/16 09:42:27;;;;;;;7.33;4.83;;;10.80;99.90;;;;;;4844948;29;20228;-67
2023/04/16 09:44:55;;;;;;;7.57;5.00;;;10.90;99.90;;;;;;4845667;29;20587;-67
2023/04/16 09:47:41;;;;;;;7.53;5.60;;;11.00;99.90;;;;;;4853468;29;20251;-67
2023/04/16 09:50:15;;;;;;;8.90;5.40;;;11.00;99.90;;;;;;4847193;29;20237;-67
2023/04/16 09:52:48;;;;;;;9.87;4.80;;;11.10;99.90;;;;;;4845681;29;20263;-66
2023/04/16 09:55:18;;;;;;;6.90;4.20;;;11.00;99.90;;;;;;4847841;29;20231;-67
2023/04/16 09:57:47;;;;;;;9.07;4.80;;;10.90;99.90;;;;;;4854620;29;20320;-67
2023/04/16 10:00:19;;;;;;;9.27;4.70;;;10.80;99.90;;;;;;4855136;29;20565;-67
2023/04/16 10:02:47;;;;;;;7.53;4.80;;;10.80;99.90;;;;;;4849533;29;20299;-67
2023/04/16 10:05:20;;;;;;;5.47;4.50;;;10.80;99.90;;;;;;4855481;29;20234;-67
2023/04/16 10:07:48;;;;;;;7.90;4.83;;;10.80;99.90;;;;;;4862448;29;20203;-68
2023/04/16 10:10:16;;;;;;;13.07;5.13;;;10.80;99.90;;;;;;4845137;29;20216;-67
2023/04/16 10:12:45;;;;;;;10.67;5.07;;;10.80;99.90;;;;;;4849513;29;20259;-67
2023/04/16 10:15:13;;;;;;;12.33;5.57;;;10.70;99.90;;;;;;4846860;29;20226;-67
2023/04/16 10:17:42;;;;;;;11.67;5.53;;;10.70;99.90;;;;;;4859957;29;20248;-67
2023/04/16 10:20:11;;;;;;;12.80;5.60;;;10.80;99.90;;;;;;4855982;29;20682;-67
2023/04/16 10:22:41;;;;;;;7.70;5.40;;;10.70;99.90;;;;;;4843962;29;20874;-67
2023/04/16 10:25:10;;;;;;;11.17;5.23;;;10.70;99.90;;;;;;4854819;29;20203;-67
2023/04/16 10:27:40;;;;;;;10.30;5.23;;;10.80;99.90;;;;;;4864525;29;20231;-67
2023/04/16 10:30:11;;;;;;;13.70;5.40;;;10.80;99.90;;;;;;4855643;29;20219;-67
2023/04/16 10:32:40;;;;;;;5.37;4.80;;;10.90;99.90;;;;;;4855460;29;20231;-67
2023/04/16 10:35:09;;;;;;;10.47;5.30;;;10.90;99.90;;;;;;4856810;29;20242;-67
2023/04/16 10:37:37;;;;;;;10.37;5.90;;;10.90;99.90;;;;;;4852728;29;20264;-67
2023/04/16 10:40:25;;;;;;;8.07;5.87;;;10.90;99.90;;;;;;4860915;29;20211;-68
2023/04/16 10:42:57;;;;;;;9.80;5.13;;;11.00;99.90;;;;;;4853728;29;20271;-67
2023/04/16 10:45:31;;;;;;;8.30;5.10;;;11.00;99.90;;;;;;4860381;29;20222;-67
2023/04/16 10:47:59;;;;;;;7.03;5.17;;;11.00;99.90;;;;;;4862626;29;20582;-67
2023/04/16 10:50:35;;;;;;;10.73;5.57;;;11.00;99.90;;;;;;4859614;29;20234;-68
2023/04/16 10:53:18;;;;;;;8.70;5.27;;;11.10;99.90;;;;;;4852317;29;20235;-67
2023/04/16 10:56:15;;;;;;;8.17;5.30;;;11.10;99.90;;;;;;4855256;29;20232;-67
2023/04/16 10:58:43;;;;;;;6.53;5.10;;;11.00;99.90;;;;;;4820918;29;20239;-66
2023/04/16 11:01:13;;;;;;;8.50;5.13;;;11.00;99.90;;;;;;4862344;29;20748;-67
2023/04/16 11:03:43;;;;;;;11.27;5.47;;;11.00;99.90;;;;;;4857141;29;20219;-67
2023/04/16 11:06:13;;;;;;;10.23;5.03;;;11.00;99.90;;;;;;4856238;29;20309;-67
2023/04/16 11:08:42;;;;;;;12.07;5.43;;;11.10;99.90;;;;;;4856364;29;20224;-67
2023/04/16 11:11:23;;;;;;;8.80;5.37;;;11.20;99.90;;;;;;4854744;29;20347;-68
2023/04/16 11:13:56;;;;;;;7.77;5.10;;;11.20;99.90;;;;;;4852821;29;20243;-66
2023/04/16 11:16:28;;;;;;;10.80;5.00;;;11.20;99.90;;;;;;4851853;29;20195;-65
2023/04/16 11:18:57;;;;;;;7.10;5.27;;;11.10;99.90;;;;;;4859692;29;20202;-66
2023/04/16 11:21:25;;;;;;;8.73;5.17;;;11.10;99.90;;;;;;4847172;29;20326;-66
2023/04/16 11:23:54;;;;;;;7.33;5.43;;;11.00;99.90;;;;;;4864660;29;20233;-66
2023/04/16 11:26:29;;;;;;;11.00;5.67;;;11.00;99.90;;;;;;4858988;29;20271;-66
2023/04/16 11:28:59;;;;;;;8.73;5.03;;;11.00;99.90;;;;;;4844943;29;20290;-66
2023/04/16 11:31:27;;;;;;;7.40;5.00;;;11.00;99.90;;;;;;4850854;29;20199;-65
2023/04/16 11:33:59;;;;;;;8.57;5.43;;;10.90;99.90;;;;;;4862402;29;20195;-66
2023/04/16 11:36:28;;;;;;;7.77;5.27;;;10.90;99.90;;;;;;4849665;29;20224;-66
2023/04/16 11:39:03;;;;;;;12.67;5.13;;;10.90;99.90;;;;;;4848554;29;20242;-66
2023/04/16 11:41:33;;;;;;;7.47;5.13;;;10.90;99.90;;;;;;4851163;29;20353;-66
2023/04/16 11:44:16;;;;;;;10.17;5.30;;;11.00;99.90;;;;;;4851672;29;20231;-66
2023/04/16 11:46:44;;;;;;;9.07;5.30;;;10.90;99.90;;;;;;4863243;29;20230;-66
2023/04/16 11:49:12;;;;;;;8.93;5.27;;;11.10;99.90;;;;;;4856570;29;20195;-66
2023/04/16 11:51:41;;;;;;;8.77;5.23;;;11.10;99.90;;;;;;4858762;29;20242;-66
2023/04/16 11:54:10;;;;;;;10.33;5.50;;;11.00;99.90;;;;;;4854277;29;20231;-66
2023/04/16 11:56:46;;;;;;;10.23;5.33;;;11.00;99.90;;;;;;4860051;29;20235;-66
2023/04/16 11:59:16;;;;;;;10.17;5.63;;;11.00;99.90;;;;;;4854170;29;20230;-66
2023/04/16 12:01:48;;;;;;;6.33;5.10;;;11.00;99.90;;;;;;4853183;29;20710;-66
2023/04/16 12:04:18;;;;;;;8.20;5.57;;;11.10;99.90;;;;;;4852447;29;20228;-66
2023/04/16 12:07:06;;;;;;;7.50;5.17;;;11.10;99.90;;;;;;4846485;29;20258;-66
2023/04/16 12:09:35;;;;;;;13.93;6.20;;;11.00;99.90;;;;;;4851598;29;20247;-66
2023/04/16 12:12:26;;;;;;;11.33;5.70;;;11.00;99.90;;;;;;4851166;29;20236;-65
2023/04/16 12:14:55;;;;;;;16.60;5.60;;;11.00;99.90;;;;;;4853155;29;20230;-66
2023/04/16 12:17:24;;;;;;;11.10;5.67;;;11.10;99.90;;;;;;4850172;29;20231;-66
2023/04/16 12:19:55;;;;;;;10.47;5.80;;;11.00;99.90;;;;;;4857925;29;20239;-66
2023/04/16 12:22:28;;;;;;;6.50;5.17;;;11.00;99.90;;;;;;4858614;29;20245;-65
2023/04/16 12:24:59;;;;;;;11.83;5.90;;;11.10;99.90;;;;;;4852939;29;20796;-66
2023/04/16 12:27:42;;;;;;;7.50;5.20;;;11.10;99.90;;;;;;4859235;29;20294;-66
2023/04/16 12:30:10;;;;;;;11.43;5.47;;;11.20;99.90;;;;;;4853071;29;20276;-66
2023/04/16 12:32:39;;;;;;;14.83;5.40;;;11.30;99.90;;;;;;4859345;29;20230;-66
2023/04/16 12:35:08;;;;;;;12.17;5.40;;;11.40;99.90;;;;;;4865718;29;20234;-66
2023/04/16 12:37:37;;;;;;;10.47;5.40;;;11.40;99.90;;;;;;4846868;29;20207;-66
2023/04/16 12:40:07;;;;;;;8.37;5.63;;;11.40;99.90;;;;;;4861374;29;20214;-66
2023/04/16 12:42:37;;;;;;;6.97;5.00;;;11.30;99.90;;;;;;4859312;29;20220;-66
2023/04/16 12:45:05;;;;;;;7.03;5.00;;;11.30;99.90;;;;;;4863550;29;20232;-66
2023/04/16 12:47:34;;;;;;;9.57;5.47;;;11.40;99.90;;;;;;4845532;29;20226;-67
2023/04/16 12:50:02;;;;;;;9.23;4.60;;;11.40;99.90;;;;;;4855859;29;20231;-66
2023/04/16 12:52:31;;;;;;;17.03;4.77;;;11.50;99.90;;;;;;4869057;29;20210;-66
2023/04/16 12:54:59;;;;;;;6.63;4.50;;;11.60;99.90;;;;;;4854712;29;20271;-66
2023/04/16 12:57:28;;;;;;;7.83;4.57;;;11.80;99.90;;;;;;4867459;29;20218;-65
2023/04/16 12:59:58;;;;;;;7.43;4.83;;;11.80;99.90;;;;;;4855027;29;20231;-66
2023/04/16 13:02:26;;;;;;;7.60;5.20;;;11.80;99.90;;;;;;4859954;29;20228;-66